Latest Coastal Weather Observations for Cape Borda

IDT60701

Issued at 8:21 pm EST Tuesday 28 July 2015 (issued every 10 minutes, with the page automatically refreshed every 10 minutes)

About coastal observations | Map of coastal stations | Coastal observations for TAS | Marine services | Other Formats
Station Details ID: 022823 Name: CAPE BORDA Lat: -35.75 Lon: 136.60 Height: 158.0 m
Data from the previous 72 hours. | See also: Recent months at Cape Borda
Date/Time
EST
Temp

°C
Wind Pressure Rain
since 9am
mm
Weather Cloud Vis
km
Sea
Height
m
Swell
Dir
 
Speed
knots
Gust
knots
hPa Trend Height
m
Period
s
Dir
28/08:00pm 10.1 N 10 15 1033.1 - 0.4 - - - - - - -
28/07:30pm 10.1 N 9 13 1033.2 - 0.4 - - - - - - -
28/07:00pm 10.1 N 8 14 1033.1 - 0.4 - - - - - - -
28/06:30pm 10.2 N 8 11 1033.4 - 0.4 - - - - - - -
28/06:00pm 10.2 N 8 12 1033.1 - 0.4 - - - - - - -
28/05:30pm 10.6 N 9 13 1033.1 - 0.4 - - - - - - -
28/05:00pm 10.9 N 8 12 1033.2 - 0.4 - - - - - - -
28/04:30pm 11.5 NNW 10 14 1033.8 - 0.4 - - - - - - -
28/04:00pm 12.1 N 10 14 1033.7 - 0.4 - - - - - - -
28/03:30pm 11.8 NNW 9 14 1034.1 F 0.4 Fine Mostly cloudy 25 <0.5 4.0 8 SW
28/03:00pm 12.3 NW 9 12 1033.9 - 0.4 - - - - - - -
28/02:30pm 12.8 NNW 9 13 1033.8 - 0.4 - - - - - - -
28/02:00pm 12.1 NNW 10 13 1034.4 - 0.4 - - - - - - -
28/01:30pm 12.3 NNW 9 13 1034.7 - 0.4 - - - - - - -
28/01:00pm 12.5 NNW 10 14 1035.4 - 0.4 - - - - - - -
28/12:30pm 12.8 NNW 8 11 1036.0 - 0.4 - - - - - - -
28/12:00pm 11.6 NW 10 16 1036.4 - 0.4 - - - - - - -
28/11:30am 11.6 NNW 8 10 1036.5 - 0.4 - - - - - - -
28/11:00am 11.2 NW 9 13 1036.8 - 0.4 - - - - - - -
28/10:30am 10.4 NW 7 10 1036.6 - 0.4 - - - - - - -
28/10:00am 9.9 WNW 8 11 1036.6 - 0.4 - - - - - - -
28/09:30am 10.0 WNW 5 8 1036.5 F 3.2 Rain Mostly cloudy 15 <0.5 3.8 8 SW
28/09:00am 9.5 N 5 6 1036.1 - 2.2 - - - - - - -
28/08:30am 8.6 NW 4 6 1036.0 - 2.2 - - - - - - -
28/08:00am 7.8 W 3 4 1035.7 - 2.2 - - - - - - -
28/07:30am 8.8 W 5 13 1035.7 - 2.2 - - - - - - -
28/07:00am 9.1 W 7 10 1035.8 - 2.2 - - - - - - -
28/06:30am 9.2 W 8 13 1036.0 - 2.2 - - - - - - -
28/06:00am 8.4 W 4 7 1035.8 - 2.2 - - - - - - -
28/05:30am 8.4 W 6 11 1035.5 - 2.2 - - - - - - -
28/05:00am 8.5 WSW 5 7 1035.4 - 2.2 - - - - - - -
28/04:30am 8.8 WSW 7 10 1035.4 - 2.2 - - - - - - -
28/04:00am 8.8 WSW 5 6 1035.3 - 2.2 - - - - - - -
28/03:30am 8.9 WSW 5 7 1035.6 - 2.2 - - - - - - -
28/03:00am 8.6 WSW 6 8 1035.4 - 1.8 - - - - - - -
28/02:30am 7.9 WSW 4 5 1035.1 - 1.8 - - - - - - -
28/02:00am 8.0 WSW 5 7 1035.2 - 1.8 - - - - - - -
28/01:30am 8.0 WSW 6 8 1035.2 - 1.8 - - - - - - -
28/01:00am 8.7 WSW 6 8 1035.3 - 1.8 - - - - - - -
28/12:30am 8.6 SW 7 9 1035.6 - 1.8 - - - - - - -
28/12:00am 8.3 WSW 6 8 1035.2 - 1.8 - - - - - - -
 
Date/Time
EST
Temp

°C
Wind Pressure Rain
since 9am
mm
Weather Cloud Vis
km
Sea
Height
m
Swell
Dir
 
Speed
knots
Gust
knots
hPa Trend Height
m
Period
s
Dir
27/11:30pm 8.7 SW 7 9 1035.4 - 1.8 - - - - - - -
27/11:00pm 8.4 WSW 6 8 1035.3 - 1.8 - - - - - - -
27/10:30pm 8.4 SW 6 8 1035.3 - 1.8 - - - - - - -
27/10:00pm 8.0 SW 6 8 1035.3 - 1.8 - - - - - - -
27/09:30pm 9.1 SW 9 12 1035.5 - 1.8 - - - - - - -
27/09:00pm 9.0 WSW 7 11 1035.3 - 1.8 - - - - - - -
27/08:30pm 8.7 SW 8 11 1035.3 - 1.8 - - - - - - -
27/08:00pm 8.8 SW 8 10 1035.0 - 1.8 - - - - - - -
27/07:30pm 8.9 SW 10 13 1034.9 - 1.8 - - - - - - -
27/07:00pm 9.2 WSW 10 15 1034.6 - 1.8 - - - - - - -
27/06:30pm 9.4 WSW 7 11 1034.7 - 1.8 - - - - - - -
27/06:00pm 9.4 WSW 9 14 1034.6 - 1.8 - - - - - - -
27/05:30pm 9.8 WSW 9 12 1034.4 - 1.8 - - - - - - -
27/05:00pm 10.2 WSW 10 13 1034.3 - 1.8 - - - - - - -
27/04:30pm 10.1 SW 6 9 1034.2 - 1.4 - - - - - - -
27/04:00pm 11.8 WSW 12 15 1034.2 - 0.0 - - - - - - -
27/03:30pm 12.2 WSW 10 15 1034.3 R 0.0 Distant precip. Partly cloudy 22 <0.5 6.3 9 SW
27/03:00pm 11.8 WSW 10 14 1033.8 - 0.0 - - - - - - -
27/02:30pm 10.4 W 9 16 1033.9 - 0.0 - - - - - - -
27/02:00pm 10.6 W 8 13 1034.1 - 0.0 - - - - - - -
27/01:30pm 11.0 W 9 14 1034.1 - 0.0 - - - - - - -
27/01:00pm 11.7 WSW 11 14 1034.3 - 0.0 - - - - - - -
27/12:30pm 11.6 SW 8 14 1034.5 - 0.0 - - - - - - -
27/12:00pm 10.7 WSW 11 15 1034.7 - 0.0 - - - - - - -
27/11:30am 10.5 SW 7 11 1034.7 - 0.0 - - - - - - -
27/11:00am 9.1 SW 11 16 1034.7 - 0.0 - - - - - - -
27/10:30am 10.9 SW 8 12 1034.4 - 0.0 - - - - - - -
27/10:00am 10.4 SW 9 13 1034.3 - 0.0 - - - - - - -
27/09:30am 8.7 SW 6 9 1034.1 R 1.4 Fine Partly cloudy 20 1 8.0 10 SW
27/09:00am 8.6 SW 12 19 1033.5 - 1.2 - - - - - - -
27/08:30am 7.1 S 7 9 1033.1 - 1.2 - - - - - - -
27/08:00am 7.4 S 8 10 1032.8 - 1.2 - - - - - - -
27/07:30am 8.3 SSW 12 15 1032.5 - 1.2 - - - - - - -
27/07:00am 8.7 SSW 10 13 1032.1 - 1.2 - - - - - - -
27/06:30am 8.3 SW 9 13 1031.9 - 1.2 - - - - - - -
27/06:00am 9.0 SW 11 16 1031.3 - 1.2 - - - - - - -
27/05:30am 9.0 SW 9 13 1031.2 - 1.2 - - - - - - -
27/05:00am 8.4 SW 9 14 1031.0 - 1.2 - - - - - - -
27/04:30am 8.5 SSW 10 14 1030.9 - 1.2 - - - - - - -
27/04:00am 8.5 WSW 11 14 1030.8 - 1.2 - - - - - - -
27/03:30am 8.1 SSW 9 14 1031.0 - 1.2 - - - - - - -
27/03:00am 7.6 S 6 11 1030.7 - 1.2 - - - - - - -
27/02:30am 8.4 SSW 10 15 1030.7 - 1.2 - - - - - - -
27/02:00am 8.2 SSW 9 13 1030.4 - 1.2 - - - - - - -
27/01:30am 8.3 SW 13 17 1030.3 - 1.2 - - - - - - -
27/01:00am 6.6 S 8 11 1030.2 - 1.2 - - - - - - -
27/12:30am 7.3 S 8 11 1030.5 - 1.2 - - - - - - -
27/12:00am 8.4 SW 11 16 1030.1 - 1.2 - - - - - - -
 
Date/Time
EST
Temp

°C
Wind Pressure Rain
since 9am
mm
Weather Cloud Vis
km
Sea
Height
m
Swell
Dir
 
Speed
knots
Gust
knots
hPa Trend Height
m
Period
s
Dir
26/11:30pm 8.4 SSW 9 12 1029.9 - 1.2 - - - - - - -
26/11:00pm 8.0 SSW 10 14 1029.7 - 1.2 - - - - - - -
26/10:30pm 6.9 SSW 9 11 1029.5 - 1.2 - - - - - - -
26/10:00pm 7.1 S 10 14 1029.4 - 1.2 - - - - - - -
26/09:30pm 7.7 SSW 9 12 1029.2 - 1.0 - - - - - - -
26/09:00pm 7.0 SSW 9 12 1028.6 - 1.0 - - - - - - -
26/08:30pm 7.2 S 11 14 1028.3 - 1.0 - - - - - - -
26/08:00pm 7.5 SSW 9 13 1027.9 - 1.0 - - - - - - -
26/07:30pm 7.3 SSW 14 21 1027.6 - 1.0 - - - - - - -
26/07:00pm 7.6 SW 12 16 1027.1 - 0.8 - - - - - - -
26/06:30pm 8.1 SSW 9 14 1026.8 - 0.0 - - - - - - -
26/06:00pm 8.5 SW 13 19 1026.2 - 0.0 - - - - - - -
26/05:30pm 9.1 SW 16 26 1025.7 - 0.0 - - - - - - -
26/05:28pm 9.3 SW 15 26 1025.7 - 0.0 - - - - - - -
26/05:00pm 9.6 SSW 14 19 1025.4 - 0.0 - - - - - - -
26/04:30pm 9.7 SW 14 21 1025.0 - 0.0 - - - - - - -
26/04:06pm 10.2 SW 16 26 1024.7 - 0.0 - - - - - - -
26/04:00pm 10.2 SW 15 21 1024.7 - 0.0 - - - - - - -
26/03:35pm 10.1 SW 15 25 1024.6 - 0.0 - - - - - - -
26/03:30pm 10.5 SW 14 21 1024.8 R 0.0 Fine Partly cloudy 15 2 9.5 9 SW
26/03:00pm 10.7 SW 17 23 1024.3 - 0.0 - - - - - - -
26/02:30pm 9.5 SW 21 32 1024.1 - 0.0 - - - - - - -
26/02:24pm 11.4 SW 17 30 1024.0 - 0.0 - - - - - - -
26/02:00pm 10.8 SW 17 25 1024.0 - 0.0 - - - - - - -
26/01:30pm 10.7 SW 16 25 1024.0 - 0.0 - - - - - - -
26/01:05pm 10.5 SW 19 31 1024.0 - 0.0 - - - - - - -
26/01:00pm 9.8 SW 20 28 1024.1 - 0.0 - - - - - - -
26/12:35pm 10.5 SW 18 29 1023.9 - 0.0 - - - - - - -
26/12:30pm 10.9 SW 17 23 1024.2 - 0.0 - - - - - - -
26/12:00pm 10.5 SW 18 26 1023.8 - 0.0 - - - - - - -
26/11:36am 10.6 SW 19 29 1023.7 - 0.0 - - - - - - -
26/11:30am 10.8 SW 18 27 1023.7 - 0.0 - - - - - - -
26/11:00am 10.3 SW 18 29 1023.3 - 0.0 - - - - - - -
26/10:51am 10.0 SW 18 28 1023.2 - 0.0 - - - - - - -
26/10:30am 9.8 SW 19 26 1022.8 - 0.0 - - - - - - -
26/10:00am 8.9 SW 17 25 1022.4 - 0.0 - - - - - - -
26/09:37am 8.7 SW 19 29 1021.9 - 0.0 - - - - - - -
26/09:30am 9.0 SW 20 29 1021.9 R 5.4 Haze Mostly cloudy 15 2 13.2 10 SW
26/09:00am 6.8 SW 15 25 1021.6 - 5.4 - - - - - - -
26/08:37am 8.8 WSW 17 29 1021.1 - 5.2 - - - - - - -
26/08:30am 8.7 SW 16 24 1021.0 - 5.2 - - - - - - -
26/08:00am 7.4 SW 17 24 1020.5 - 5.2 - - - - - - -
26/07:30am 8.3 SW 20 31 1020.0 - 5.2 - - - - - - -
26/07:06am 7.6 SW 18 28 1019.5 - 5.2 - - - - - - -
26/07:00am 7.6 SW 19 28 1019.3 - 5.2 - - - - - - -
26/06:38am 8.0 SW 17 32 1018.8 - 5.2 - - - - - - -
26/06:30am 7.9 SW 20 27 1018.9 - 5.2 - - - - - - -
26/06:00am 6.9 WSW 23 39 1018.7 - 5.0 - - - - - - -
26/05:30am 8.5 WSW 21 31 1017.8 - 5.0 - - - - - - -
26/05:00am 8.6 WSW 21 32 1017.5 - 5.0 - - - - - - -
26/04:30am 8.7 SW 23 35 1017.0 - 5.0 - - - - - - -
26/04:00am 8.3 SW 24 38 1016.8 - 5.0 - - - - - - -
26/03:30am 8.1 WSW 23 35 1016.8 - 5.0 - - - - - - -
26/03:11am 6.8 SW 21 31 1017.0 - 4.8 - - - - - - -
26/03:09am 6.7 WSW 23 31 1017.1 - 4.8 - - - - - - -
26/03:04am 7.6 WSW 35 46 1016.8 - 4.6 - - - - - - -
26/03:03am 8.4 WSW 22 43 1016.7 - 4.6 - - - - - - -
26/03:01am 8.8 WSW 20 31 1016.8 - 4.6 - - - - - - -
26/03:00am 8.7 WSW 20 28 1016.7 - 4.6 - - - - - - -
26/02:37am 9.1 WSW 20 31 1016.8 - 4.6 - - - - - - -
26/02:30am 8.7 WSW 20 28 1016.8 - 4.6 - - - - - - -
26/02:00am 8.9 WSW 25 35 1016.7 - 4.6 - - - - - - -
26/01:32am 8.9 WSW 21 34 1016.3 - 4.6 - - - - - - -
26/01:30am 8.8 WSW 20 29 1016.2 - 4.6 - - - - - - -
26/01:00am 9.2 WSW 23 34 1016.0 - 4.6 - - - - - - -
26/12:30am 9.2 WSW 25 35 1015.9 - 4.6 - - - - - - -
26/12:02am 9.0 WSW 19 30 1015.5 - 4.6 - - - - - - -
26/12:00am 9.0 WSW 19 28 1015.5 - 4.6 - - - - - - -
 
Date/Time
EST
Temp

°C
Wind Pressure Rain
since 9am
mm
Weather Cloud Vis
km
Sea
Height
m
Swell
Dir
 
Speed
knots
Gust
knots
hPa Trend Height
m
Period
s
Dir
25/11:30pm 7.5 W 20 35 1015.3 - 4.6 - - - - - - -
25/11:00pm 8.7 WSW 21 31 1015.0 - 4.0 - - - - - - -
25/10:33pm 9.5 WSW 23 33 1015.1 - 4.0 - - - - - - -
25/10:30pm 9.6 WSW 24 33 1015.1 - 4.0 - - - - - - -
25/10:01pm 9.8 WSW 25 35 1014.9 - 4.0 - - - - - - -
25/10:00pm 9.8 WSW 26 35 1014.9 - 4.0 - - - - - - -
25/09:30pm 10.5 WSW 21 36 1014.6 - 4.0 - - - - - - -
25/09:00pm 10.7 W 23 35 1013.9 - 4.0 - - - - - - -

Other Formats:

Comma delimited format used in spreadsheet applications
http://www.bom.gov.au/fwo/IDT60701/IDT60701.95805.axf

JavaScript Object Notation format (JSON) in row-major order
http://www.bom.gov.au/fwo/IDT60701/IDT60701.95805.json